KCRP/CRP METAR and TAF weather

Enter ICAO airport designator
Station Type Date Time Source
KCRP METAR 2019/12/05 22:51 UTC NOAA

KCRP 052251Z 14013KT 10SM FEW035 FEW050 FEW150 BKN250 24/19 A2996 RMK AO2 SLP143 T02440189


Station Type Date Time Source
KCRP Decoded METAR 2019/12/05 22:51 UTC NOAA

CORPUS CHRISTI INTERNATIONAL , TX, United States (KCRP) 27-46N 97-31W 16M
Dec 05, 2019 - 05:51 PM EST / 2019.12.05 2251 UTC
Wind: from the SE (140 degrees) at 15 MPH (13 KT):0
Visibility: 10 mile(s):0
Sky conditions: mostly cloudy
Temperature: 75.9 F (24.4 C)
Dew Point: 66.0 F (18.9 C)
Relative Humidity: 71%
Pressure (altimeter): 29.96 in. Hg (1014 hPa)
ob: KCRP 052251Z 14013KT 10SM FEW035 FEW050 FEW150 BKN250 24/19 A2996 RMK AO2 SLP143 T02440189
cycle: 23

Station Type Date Time Source
KCRP TAF 2019/12/05 18:30 UTC NOAA

TAF KCRP 051726Z 0518/0618 16012G16KT P6SM SCT025 BKN200
FM060200 17007KT 5SM BR BKN009 OVC150
FM060600 VRB03KT 3SM BR OVC006
TEMPO 0611/0614 1SM BR VV003
FM061600 34009KT P6SM SCT015

Example: see airport list